sensor_id;sensor_type;location;lat;lon;timestamp;pressure;altitude;pressure_sealevel;temperature;humidity
19590;BME280;12231;42.782;23.388;2023-07-24T00:00:29;95737.00;;;23.86;78.28
19590;BME280;12231;42.782;23.388;2023-07-24T00:02:55;95741.31;;;23.87;78.87
19590;BME280;12231;42.782;23.388;2023-07-24T00:05:21;59471.19;;;-141.97;100.00
19590;BME280;12231;42.782;23.388;2023-07-24T00:07:46;95744.88;;;23.94;78.20
19590;BME280;12231;42.782;23.388;2023-07-24T00:10:12;59471.19;;;-141.97;100.00
19590;BME280;12231;42.782;23.388;2023-07-24T00:12:37;95741.28;;;24.03;77.83
19590;BME280;12231;42.782;23.388;2023-07-24T00:15:03;71265.06;;;-141.97;77.83
19590;BME280;12231;42.782;23.388;2023-07-24T00:17:28;95741.28;;;24.03;77.83
19590;BME280;12231;42.782;23.388;2023-07-24T00:19:54;95740.03;;;-141.97;76.65
19590;BME280;12231;42.782;23.388;2023-07-24T00:22:19;71241.41;;;-141.97;76.65
19590;BME280;12231;42.782;23.388;2023-07-24T00:24:44;59471.19;;;-141.97;100.00
19590;BME280;12231;42.782;23.388;2023-07-24T00:27:10;71241.41;;;-141.97;76.65
19590;BME280;12231;42.782;23.388;2023-07-24T00:29:35;59471.19;;;-141.97;100.00
19590;BME280;12231;42.782;23.388;2023-07-24T00:32:01;59471.19;;;-141.97;100.00
19590;BME280;12231;42.782;23.388;2023-07-24T00:34:26;59471.19;;;-141.97;100.00
19590;BME280;12231;42.782;23.388;2023-07-24T00:36:51;59471.19;;;-141.97;100.00
19590;BME280;12231;42.782;23.388;2023-07-24T00:39:17;59471.19;;;-141.97;100.00
19590;BME280;12231;42.782;23.388;2023-07-24T00:41:43;95740.03;;;24.22;76.65
19590;BME280;12231;42.782;23.388;2023-07-24T00:44:08;95736.75;;;24.28;75.94
19590;BME280;12231;42.782;23.388;2023-07-24T00:46:34;59471.19;;;-141.97;100.00
19590;BME280;12231;42.782;23.388;2023-07-24T00:49:01;59471.19;;;-141.97;100.00
19590;BME280;12231;42.782;23.388;2023-07-24T00:51:27;95738.50;;;24.35;75.56
19590;BME280;12231;42.782;23.388;2023-07-24T00:53:57;95732.28;;;24.28;75.55
19590;BME280;12231;42.782;23.388;2023-07-24T00:56:23;95733.28;;;24.27;75.58
19590;BME280;12231;42.782;23.388;2023-07-24T00:58:49;95731.91;;;24.31;75.48
19590;BME280;12231;42.782;23.388;2023-07-24T01:01:16;95729.28;;;23.85;75.98
19590;BME280;12231;42.782;23.388;2023-07-24T01:03:42;59471.19;;;-141.97;100.00
19590;BME280;12231;42.782;23.388;2023-07-24T01:06:09;95714.56;;;24.14;75.92
19590;BME280;12231;42.782;23.388;2023-07-24T01:08:35;95721.09;;;24.18;75.63
19590;BME280;12231;42.782;23.388;2023-07-24T01:11:12;95729.69;;;24.20;74.96
19590;BME280;12231;42.782;23.388;2023-07-24T01:13:43;95733.44;;;24.26;74.87
19590;BME280;12231;42.782;23.388;2023-07-24T01:16:13;95733.66;;;24.16;75.17
19590;BME280;12231;42.782;23.388;2023-07-24T01:18:39;95733.66;;;24.16;75.17
19590;BME280;12231;42.782;23.388;2023-07-24T01:21:08;95725.47;;;23.95;75.03
19590;BME280;12231;42.782;23.388;2023-07-24T01:26:19;59471.19;;;-141.97;100.00
19590;BME280;12231;42.782;23.388;2023-07-24T01:28:44;59471.19;;;-141.97;100.00
19590;BME280;12231;42.782;23.388;2023-07-24T01:31:11;71262.78;;;23.95;75.03
19590;BME280;12231;42.782;23.388;2023-07-24T01:33:37;95725.47;;;-141.97;75.03
19590;BME280;12231;42.782;23.388;2023-07-24T01:36:03;71262.78;;;-141.97;75.03
19590;BME280;12231;42.782;23.388;2023-07-24T01:38:31;59471.19;;;-141.97;100.00
19590;BME280;12231;42.782;23.388;2023-07-24T01:40:57;59471.19;;;-141.97;100.00
19590;BME280;12231;42.782;23.388;2023-07-24T01:43:25;59471.19;;;-141.97;100.00
19590;BME280;12231;42.782;23.388;2023-07-24T01:45:54;59471.19;;;-141.97;100.00
19590;BME280;12231;42.782;23.388;2023-07-24T01:48:19;59471.19;;;-141.97;100.00
19590;BME280;12231;42.782;23.388;2023-07-24T01:50:45;59471.19;;;-141.97;100.00
19590;BME280;12231;42.782;23.388;2023-07-24T01:53:10;59471.19;;;-141.97;100.00
19590;BME280;12231;42.782;23.388;2023-07-24T01:55:36;59471.19;;;-141.97;100.00
19590;BME280;12231;42.782;23.388;2023-07-24T01:58:01;59471.19;;;-141.97;100.00
19590;BME280;12231;42.782;23.388;2023-07-24T02:00:27;59471.19;;;-141.97;100.00
19590;BME280;12231;42.782;23.388;2023-07-24T02:02:52;59471.19;;;-141.97;100.00
19590;BME280;12231;42.782;23.388;2023-07-24T02:05:17;59471.19;;;-141.97;100.00
19590;BME280;12231;42.782;23.388;2023-07-24T02:07:43;59471.19;;;-141.97;100.00
19590;BME280;12231;42.782;23.388;2023-07-24T02:10:09;59471.19;;;-141.97;100.00
19590;BME280;12231;42.782;23.388;2023-07-24T02:12:34;59471.19;;;-141.97;100.00
19590;BME280;12231;42.782;23.388;2023-07-24T02:15:00;59471.19;;;-141.97;100.00
19590;BME280;12231;42.782;23.388;2023-07-24T02:17:25;59471.19;;;-141.97;100.00
19590;BME280;12231;42.782;23.388;2023-07-24T02:19:51;59471.19;;;-141.97;100.00
19590;BME280;12231;42.782;23.388;2023-07-24T02:22:16;59471.19;;;-141.97;100.00
19590;BME280;12231;42.782;23.388;2023-07-24T02:24:42;59471.19;;;-141.97;100.00
19590;BME280;12231;42.782;23.388;2023-07-24T02:27:07;59471.19;;;-141.97;100.00
19590;BME280;12231;42.782;23.388;2023-07-24T02:29:33;59471.19;;;-141.97;100.00
19590;BME280;12231;42.782;23.388;2023-07-24T02:31:59;59471.19;;;-141.97;100.00
19590;BME280;12231;42.782;23.388;2023-07-24T02:34:24;59471.19;;;-141.97;100.00
19590;BME280;12231;42.782;23.388;2023-07-24T02:36:52;59471.19;;;-141.97;100.00
19590;BME280;12231;42.782;23.388;2023-07-24T02:39:18;59471.19;;;-141.97;100.00
19590;BME280;12231;42.782;23.388;2023-07-24T02:41:44;59471.19;;;-141.97;100.00
19590;BME280;12231;42.782;23.388;2023-07-24T02:44:10;59471.19;;;-141.97;100.00
19590;BME280;12231;42.782;23.388;2023-07-24T02:46:36;59471.19;;;-141.97;100.00
19590;BME280;12231;42.782;23.388;2023-07-24T02:49:01;59471.19;;;-141.97;100.00
19590;BME280;12231;42.782;23.388;2023-07-24T02:51:27;59471.19;;;-141.97;100.00
19590;BME280;12231;42.782;23.388;2023-07-24T02:53:54;59471.19;;;-141.97;100.00
19590;BME280;12231;42.782;23.388;2023-07-24T02:56:19;59471.19;;;-141.97;100.00
19590;BME280;12231;42.782;23.388;2023-07-24T02:58:45;59471.19;;;-141.97;100.00
19590;BME280;12231;42.782;23.388;2023-07-24T03:01:11;59471.19;;;-141.97;100.00
19590;BME280;12231;42.782;23.388;2023-07-24T03:03:42;59471.19;;;-141.97;100.00
19590;BME280;12231;42.782;23.388;2023-07-24T03:06:08;59471.19;;;-141.97;100.00
19590;BME280;12231;42.782;23.388;2023-07-24T03:08:33;59471.19;;;-141.97;100.00
19590;BME280;12231;42.782;23.388;2023-07-24T03:10:59;59471.19;;;-141.97;100.00
19590;BME280;12231;42.782;23.388;2023-07-24T03:13:25;59471.19;;;-141.97;100.00
19590;BME280;12231;42.782;23.388;2023-07-24T03:15:55;59471.19;;;-141.97;100.00
19590;BME280;12231;42.782;23.388;2023-07-24T03:18:21;59471.19;;;-141.97;100.00
19590;BME280;12231;42.782;23.388;2023-07-24T03:20:47;59471.19;;;-141.97;100.00
19590;BME280;12231;42.782;23.388;2023-07-24T03:23:13;59471.19;;;-141.97;100.00
19590;BME280;12231;42.782;23.388;2023-07-24T03:25:38;59471.19;;;-141.97;100.00
19590;BME280;12231;42.782;23.388;2023-07-24T03:28:04;59471.19;;;-141.97;100.00
19590;BME280;12231;42.782;23.388;2023-07-24T03:30:29;59471.19;;;-141.97;100.00
19590;BME280;12231;42.782;23.388;2023-07-24T03:32:57;59471.19;;;-141.97;100.00
19590;BME280;12231;42.782;23.388;2023-07-24T03:35:22;59471.19;;;-141.97;100.00
19590;BME280;12231;42.782;23.388;2023-07-24T03:37:48;59471.19;;;-141.97;100.00
19590;BME280;12231;42.782;23.388;2023-07-24T03:40:14;59471.19;;;-141.97;100.00
19590;BME280;12231;42.782;23.388;2023-07-24T03:42:41;59471.19;;;-141.97;100.00
19590;BME280;12231;42.782;23.388;2023-07-24T03:45:07;59471.19;;;-141.97;100.00
19590;BME280;12231;42.782;23.388;2023-07-24T03:47:32;59471.19;;;-141.97;100.00
19590;BME280;12231;42.782;23.388;2023-07-24T03:49:58;59471.19;;;-141.97;100.00
19590;BME280;12231;42.782;23.388;2023-07-24T03:52:23;95728.13;;;24.65;71.53
19590;BME280;12231;42.782;23.388;2023-07-24T03:54:49;95731.78;;;24.64;71.46
19590;BME280;12231;42.782;23.388;2023-07-24T03:57:14;95741.78;;;24.76;71.01
19590;BME280;12231;42.782;23.388;2023-07-24T03:59:39;95738.91;;;24.86;71.44
19590;BME280;12231;42.782;23.388;2023-07-24T04:02:05;95734.41;;;24.94;70.84
19590;BME280;12231;42.782;23.388;2023-07-24T04:04:31;95727.69;;;24.22;70.37
19590;BME280;12231;42.782;23.388;2023-07-24T04:06:56;59471.19;;;-141.97;100.00
19590;BME280;12231;42.782;23.388;2023-07-24T04:09:22;59471.19;;;-141.97;100.00
19590;BME280;12231;42.782;23.388;2023-07-24T04:11:47;95739.31;;;22.77;77.40
19590;BME280;12231;42.782;23.388;2023-07-24T04:14:13;95745.75;;;22.74;78.37
19590;BME280;12231;42.782;23.388;2023-07-24T04:19:03;95745.75;;;22.74;78.37
19590;BME280;12231;42.782;23.388;2023-07-24T04:21:29;59471.19;;;-141.97;100.00
19590;BME280;12231;42.782;23.388;2023-07-24T04:23:54;59471.19;;;-141.97;100.00
19590;BME280;12231;42.782;23.388;2023-07-24T04:26:20;59471.19;;;-141.97;100.00
19590;BME280;12231;42.782;23.388;2023-07-24T04:28:45;59471.19;;;-141.97;100.00
19590;BME280;12231;42.782;23.388;2023-07-24T04:31:11;59471.19;;;-141.97;100.00
19590;BME280;12231;42.782;23.388;2023-07-24T04:33:36;59471.19;;;-141.97;100.00
19590;BME280;12231;42.782;23.388;2023-07-24T04:36:02;59471.19;;;-141.97;100.00
19590;BME280;12231;42.782;23.388;2023-07-24T04:38:27;59471.19;;;-141.97;100.00
19590;BME280;12231;42.782;23.388;2023-07-24T04:40:52;59471.19;;;-141.97;100.00
19590;BME280;12231;42.782;23.388;2023-07-24T04:43:18;59471.19;;;-141.97;100.00
19590;BME280;12231;42.782;23.388;2023-07-24T04:45:43;59471.19;;;-141.97;100.00
19590;BME280;12231;42.782;23.388;2023-07-24T04:48:09;59471.19;;;-141.97;100.00
19590;BME280;12231;42.782;23.388;2023-07-24T04:50:34;59471.19;;;-141.97;100.00
19590;BME280;12231;42.782;23.388;2023-07-24T04:53:00;59471.19;;;-141.97;100.00
19590;BME280;12231;42.782;23.388;2023-07-24T04:55:25;59471.19;;;-141.97;100.00
19590;BME280;12231;42.782;23.388;2023-07-24T04:57:50;59471.19;;;-141.97;100.00
19590;BME280;12231;42.782;23.388;2023-07-24T05:00:16;59471.19;;;-141.97;100.00
19590;BME280;12231;42.782;23.388;2023-07-24T05:02:41;59471.19;;;-141.97;100.00
19590;BME280;12231;42.782;23.388;2023-07-24T05:05:07;59471.19;;;-141.97;100.00
19590;BME280;12231;42.782;23.388;2023-07-24T05:07:33;59471.19;;;-141.97;100.00
19590;BME280;12231;42.782;23.388;2023-07-24T05:09:58;59471.19;;;-141.97;100.00
19590;BME280;12231;42.782;23.388;2023-07-24T05:28:59;95744.53;;;31.90;49.85
19590;BME280;12231;42.782;23.388;2023-07-24T05:31:25;95736.59;;;32.62;48.20
19590;BME280;12231;42.782;23.388;2023-07-24T05:33:50;95734.09;;;33.26;45.32
19590;BME280;12231;42.782;23.388;2023-07-24T05:36:16;95739.41;;;33.45;45.50
19590;BME280;12231;42.782;23.388;2023-07-24T05:38:41;95743.75;;;33.69;45.07
19590;BME280;12231;42.782;23.388;2023-07-24T05:41:06;95738.75;;;34.76;42.61
19590;BME280;12231;42.782;23.388;2023-07-24T05:43:32;95736.81;;;34.25;42.98
19590;BME280;12231;42.782;23.388;2023-07-24T05:45:58;95733.16;;;35.17;41.25
19590;BME280;12231;42.782;23.388;2023-07-24T05:48:25;95743.91;;;35.95;39.61
19590;BME280;12231;42.782;23.388;2023-07-24T05:50:50;95739.50;;;36.39;38.65
19590;BME280;12231;42.782;23.388;2023-07-24T05:53:16;95732.94;;;36.51;37.70
19590;BME280;12231;42.782;23.388;2023-07-24T05:55:42;95739.88;;;36.31;38.77
19590;BME280;12231;42.782;23.388;2023-07-24T05:58:09;95734.38;;;36.59;38.51
19590;BME280;12231;42.782;23.388;2023-07-24T06:00:34;95731.25;;;37.32;36.62
19590;BME280;12231;42.782;23.388;2023-07-24T06:03:01;95722.19;;;38.01;34.78
19590;BME280;12231;42.782;23.388;2023-07-24T06:05:27;95723.38;;;37.83;34.49
19590;BME280;12231;42.782;23.388;2023-07-24T06:07:52;95716.09;;;38.57;33.35
19590;BME280;12231;42.782;23.388;2023-07-24T06:10:17;95715.91;;;38.32;33.79
19590;BME280;12231;42.782;23.388;2023-07-24T06:12:43;95713.16;;;38.17;34.10
19590;BME280;12231;42.782;23.388;2023-07-24T06:15:08;95716.25;;;38.40;33.88
19590;BME280;12231;42.782;23.388;2023-07-24T06:17:34;95722.19;;;38.01;34.64
19590;BME280;12231;42.782;23.388;2023-07-24T06:19:59;95708.94;;;38.36;34.41
19590;BME280;12231;42.782;23.388;2023-07-24T06:22:25;95712.97;;;38.85;32.92
19590;BME280;12231;42.782;23.388;2023-07-24T06:24:50;95710.50;;;39.91;31.93
19590;BME280;12231;42.782;23.388;2023-07-24T06:27:16;95710.03;;;40.82;30.44
19590;BME280;12231;42.782;23.388;2023-07-24T06:29:41;95715.34;;;40.24;30.57
19590;BME280;12231;42.782;23.388;2023-07-24T06:32:07;95715.06;;;40.15;30.57
19590;BME280;12231;42.782;23.388;2023-07-24T06:34:33;95712.50;;;40.79;29.60
19590;BME280;12231;42.782;23.388;2023-07-24T06:36:59;95707.56;;;40.91;30.04
19590;BME280;12231;42.782;23.388;2023-07-24T06:39:24;95711.75;;;41.66;29.05
19590;BME280;12231;42.782;23.388;2023-07-24T06:41:53;95709.97;;;42.19;27.98
19590;BME280;12231;42.782;23.388;2023-07-24T06:44:18;95707.31;;;40.82;29.54
19590;BME280;12231;42.782;23.388;2023-07-24T06:46:44;95704.00;;;40.02;31.28
19590;BME280;12231;42.782;23.388;2023-07-24T06:49:09;95698.00;;;40.45;30.08
19590;BME280;12231;42.782;23.388;2023-07-24T06:51:37;95701.94;;;41.75;27.95
19590;BME280;12231;42.782;23.388;2023-07-24T06:54:04;95707.34;;;41.75;28.87
19590;BME280;12231;42.782;23.388;2023-07-24T06:56:29;95704.63;;;41.36;27.74
19590;BME280;12231;42.782;23.388;2023-07-24T06:58:55;95698.19;;;40.63;30.00
19590;BME280;12231;42.782;23.388;2023-07-24T07:01:20;95695.34;;;42.14;27.52
19590;BME280;12231;42.782;23.388;2023-07-24T07:03:45;95701.06;;;43.07;26.94
19590;BME280;12231;42.782;23.388;2023-07-24T07:06:11;95699.31;;;43.72;25.83
19590;BME280;12231;42.782;23.388;2023-07-24T07:08:37;95697.78;;;44.17;24.78
19590;BME280;12231;42.782;23.388;2023-07-24T07:11:03;95706.81;;;41.73;27.50
19590;BME280;12231;42.782;23.388;2023-07-24T07:13:28;95706.88;;;43.75;25.23
19590;BME280;12231;42.782;23.388;2023-07-24T07:15:54;95701.47;;;41.63;27.64
19590;BME280;12231;42.782;23.388;2023-07-24T07:18:19;95701.09;;;42.60;27.27
19590;BME280;12231;42.782;23.388;2023-07-24T07:20:49;95697.47;;;40.33;29.62
19590;BME280;12231;42.782;23.388;2023-07-24T07:23:14;95700.59;;;41.72;28.04
19590;BME280;12231;42.782;23.388;2023-07-24T07:25:40;95697.44;;;39.22;31.33
19590;BME280;12231;42.782;23.388;2023-07-24T07:28:06;95699.91;;;39.34;31.10
19590;BME280;12231;42.782;23.388;2023-07-24T07:30:31;95689.97;;;40.94;28.17
19590;BME280;12231;42.782;23.388;2023-07-24T07:32:56;95699.06;;;39.18;31.28
19590;BME280;12231;42.782;23.388;2023-07-24T07:35:22;95698.59;;;39.56;29.07
19590;BME280;12231;42.782;23.388;2023-07-24T07:37:47;95682.06;;;40.97;28.46
19590;BME280;12231;42.782;23.388;2023-07-24T07:40:13;95682.34;;;41.01;28.16
19590;BME280;12231;42.782;23.388;2023-07-24T07:42:38;95678.50;;;41.89;27.10
19590;BME280;12231;42.782;23.388;2023-07-24T07:45:04;95685.22;;;38.95;31.46
19590;BME280;12231;42.782;23.388;2023-07-24T07:47:30;95684.38;;;41.67;28.25
19590;BME280;12231;42.782;23.388;2023-07-24T07:49:56;95680.44;;;42.88;25.75
19590;BME280;12231;42.782;23.388;2023-07-24T07:52:21;95680.25;;;40.82;28.20
19590;BME280;12231;42.782;23.388;2023-07-24T07:54:50;95668.63;;;42.03;26.93
19590;BME280;12231;42.782;23.388;2023-07-24T07:57:16;95677.34;;;42.76;26.04
19590;BME280;12231;42.782;23.388;2023-07-24T07:59:42;95677.75;;;43.06;25.19
19590;BME280;12231;42.782;23.388;2023-07-24T08:02:07;95676.00;;;41.97;26.51
19590;BME280;12231;42.782;23.388;2023-07-24T08:04:33;95678.81;;;41.54;27.58
19590;BME280;12231;42.782;23.388;2023-07-24T08:06:58;95671.44;;;41.59;27.70
19590;BME280;12231;42.782;23.388;2023-07-24T08:09:24;95672.28;;;41.83;27.42
19590;BME280;12231;42.782;23.388;2023-07-24T08:11:50;95668.72;;;42.69;26.08
19590;BME280;12231;42.782;23.388;2023-07-24T08:14:17;95672.69;;;43.18;25.26
19590;BME280;12231;42.782;23.388;2023-07-24T08:16:42;95670.00;;;42.24;25.83
19590;BME280;12231;42.782;23.388;2023-07-24T08:19:07;95662.78;;;41.09;27.77
19590;BME280;12231;42.782;23.388;2023-07-24T08:21:33;95657.91;;;43.06;25.07
19590;BME280;12231;42.782;23.388;2023-07-24T08:23:58;95659.63;;;43.58;24.01
19590;BME280;12231;42.782;23.388;2023-07-24T08:26:25;95669.22;;;41.66;26.49
19590;BME280;12231;42.782;23.388;2023-07-24T08:28:51;95658.53;;;42.08;23.89
19590;BME280;12231;42.782;23.388;2023-07-24T08:31:17;95664.00;;;41.36;25.75
19590;BME280;12231;42.782;23.388;2023-07-24T08:33:42;95656.09;;;38.97;28.59
19590;BME280;12231;42.782;23.388;2023-07-24T08:36:08;95651.59;;;39.52;27.62
19590;BME280;12231;42.782;23.388;2023-07-24T08:38:34;95654.03;;;39.59;26.52
19590;BME280;12231;42.782;23.388;2023-07-24T08:41:05;95648.38;;;39.50;26.83
19590;BME280;12231;42.782;23.388;2023-07-24T08:43:32;95648.06;;;39.37;27.04
19590;BME280;12231;42.782;23.388;2023-07-24T08:45:58;95645.16;;;40.67;25.53
19590;BME280;12231;42.782;23.388;2023-07-24T08:48:27;95647.16;;;40.42;26.32
19590;BME280;12231;42.782;23.388;2023-07-24T08:50:54;95634.59;;;42.16;24.23
19590;BME280;12231;42.782;23.388;2023-07-24T08:53:21;95635.34;;;41.64;23.84
19590;BME280;12231;42.782;23.388;2023-07-24T08:55:48;95632.28;;;42.75;24.32
19590;BME280;12231;42.782;23.388;2023-07-24T08:58:14;95635.41;;;43.43;23.60
19590;BME280;12231;42.782;23.388;2023-07-24T09:00:40;95632.88;;;42.01;25.99
19590;BME280;12231;42.782;23.388;2023-07-24T09:03:05;95629.19;;;42.63;24.93
19590;BME280;12231;42.782;23.388;2023-07-24T09:05:31;95631.72;;;42.73;25.40
19590;BME280;12231;42.782;23.388;2023-07-24T09:07:56;95636.31;;;40.42;26.20
19590;BME280;12231;42.782;23.388;2023-07-24T09:10:25;95633.22;;;39.14;30.23
19590;BME280;12231;42.782;23.388;2023-07-24T09:12:51;95627.47;;;38.24;30.57
19590;BME280;12231;42.782;23.388;2023-07-24T09:15:16;95626.03;;;37.33;31.85
19590;BME280;12231;42.782;23.388;2023-07-24T09:17:52;95621.72;;;36.14;33.53
19590;BME280;12231;42.782;23.388;2023-07-24T09:20:18;95626.75;;;36.70;34.52
19590;BME280;12231;42.782;23.388;2023-07-24T09:22:51;95624.84;;;35.68;35.89
19590;BME280;12231;42.782;23.388;2023-07-24T09:25:16;95612.13;;;36.18;35.96
19590;BME280;12231;42.782;23.388;2023-07-24T09:27:42;95614.44;;;36.31;34.96
19590;BME280;12231;42.782;23.388;2023-07-24T09:30:14;95611.81;;;36.15;36.11
19590;BME280;12231;42.782;23.388;2023-07-24T09:32:40;95606.13;;;36.11;35.94
19590;BME280;12231;42.782;23.388;2023-07-24T09:35:16;95601.69;;;36.43;34.67
19590;BME280;12231;42.782;23.388;2023-07-24T09:37:46;95596.09;;;35.85;36.83
19590;BME280;12231;42.782;23.388;2023-07-24T09:40:14;95593.19;;;36.08;35.55
19590;BME280;12231;42.782;23.388;2023-07-24T09:42:40;95586.88;;;36.19;38.06
19590;BME280;12231;42.782;23.388;2023-07-24T09:45:06;95581.69;;;38.24;30.92
19590;BME280;12231;42.782;23.388;2023-07-24T09:47:36;95571.78;;;40.25;30.65
19590;BME280;12231;42.782;23.388;2023-07-24T09:50:04;95562.72;;;41.66;27.41
19590;BME280;12231;42.782;23.388;2023-07-24T09:52:30;95554.13;;;41.25;26.38
19590;BME280;12231;42.782;23.388;2023-07-24T09:57:25;95554.38;;;41.86;25.70
19590;BME280;12231;42.782;23.388;2023-07-24T09:59:52;95555.44;;;42.37;25.29
19590;BME280;12231;42.782;23.388;2023-07-24T10:02:19;95552.44;;;42.15;24.54
19590;BME280;12231;42.782;23.388;2023-07-24T10:04:44;95553.97;;;41.45;24.80
19590;BME280;12231;42.782;23.388;2023-07-24T10:07:10;95553.34;;;40.86;26.33
19590;BME280;12231;42.782;23.388;2023-07-24T10:09:36;95551.44;;;41.82;25.78
19590;BME280;12231;42.782;23.388;2023-07-24T10:12:02;95544.44;;;42.05;25.48
19590;BME280;12231;42.782;23.388;2023-07-24T10:14:28;95549.81;;;42.52;25.10
19590;BME280;12231;42.782;23.388;2023-07-24T10:16:56;95538.44;;;42.08;25.28
19590;BME280;12231;42.782;23.388;2023-07-24T10:19:21;95543.19;;;41.97;25.55
19590;BME280;12231;42.782;23.388;2023-07-24T10:21:48;95536.09;;;40.23;27.42
19590;BME280;12231;42.782;23.388;2023-07-24T10:24:15;95531.75;;;40.22;28.93
19590;BME280;12231;42.782;23.388;2023-07-24T10:26:40;95527.19;;;40.18;28.63
19590;BME280;12231;42.782;23.388;2023-07-24T10:29:06;95530.75;;;40.03;28.50
19590;BME280;12231;42.782;23.388;2023-07-24T10:31:32;95516.38;;;40.18;28.46
19590;BME280;12231;42.782;23.388;2023-07-24T10:34:04;95524.69;;;40.36;26.75
19590;BME280;12231;42.782;23.388;2023-07-24T10:36:34;95518.75;;;38.75;29.45
19590;BME280;12231;42.782;23.388;2023-07-24T10:38:59;95517.59;;;38.41;29.29
19590;BME280;12231;42.782;23.388;2023-07-24T10:41:37;95512.56;;;39.15;29.52
19590;BME280;12231;42.782;23.388;2023-07-24T10:44:03;95519.03;;;39.14;29.58
19590;BME280;12231;42.782;23.388;2023-07-24T10:46:39;95510.41;;;37.95;31.76
19590;BME280;12231;42.782;23.388;2023-07-24T10:49:05;95508.78;;;38.71;31.45
19590;BME280;12231;42.782;23.388;2023-07-24T10:51:32;95495.56;;;38.94;32.18
19590;BME280;12231;42.782;23.388;2023-07-24T10:53:59;95499.06;;;38.75;32.81
19590;BME280;12231;42.782;23.388;2023-07-24T10:56:25;95495.28;;;38.91;31.46
19590;BME280;12231;42.782;23.388;2023-07-24T10:58:51;95487.38;;;38.34;31.61
19590;BME280;12231;42.782;23.388;2023-07-24T11:01:17;95483.41;;;38.67;32.17
19590;BME280;12231;42.782;23.388;2023-07-24T11:03:43;95482.09;;;38.69;32.58
19590;BME280;12231;42.782;23.388;2023-07-24T11:06:19;95478.03;;;38.82;32.51
19590;BME280;12231;42.782;23.388;2023-07-24T11:08:55;95477.97;;;38.52;32.57
19590;BME280;12231;42.782;23.388;2023-07-24T11:11:31;95472.59;;;38.57;32.68
19590;BME280;12231;42.782;23.388;2023-07-24T11:13:57;95467.56;;;37.37;34.04
19590;BME280;12231;42.782;23.388;2023-07-24T11:16:23;95462.19;;;37.93;33.25
19590;BME280;12231;42.782;23.388;2023-07-24T11:18:49;95461.06;;;36.64;33.37
19590;BME280;12231;42.782;23.388;2023-07-24T11:21:18;95457.66;;;37.05;35.66
19590;BME280;12231;42.782;23.388;2023-07-24T11:23:54;95455.31;;;37.66;35.25
19590;BME280;12231;42.782;23.388;2023-07-24T11:26:23;95457.06;;;37.92;33.69
19590;BME280;12231;42.782;23.388;2023-07-24T11:28:50;95451.31;;;36.80;34.64
19590;BME280;12231;42.782;23.388;2023-07-24T11:31:16;95443.06;;;36.91;35.52
19590;BME280;12231;42.782;23.388;2023-07-24T11:33:46;95451.13;;;37.33;33.42
19590;BME280;12231;42.782;23.388;2023-07-24T11:36:12;95446.22;;;36.25;35.61
19590;BME280;12231;42.782;23.388;2023-07-24T11:38:38;95441.84;;;35.93;35.25
19590;BME280;12231;42.782;23.388;2023-07-24T11:41:04;95435.81;;;36.60;36.77
19590;BME280;12231;42.782;23.388;2023-07-24T11:43:29;95435.16;;;37.22;34.25
19590;BME280;12231;42.782;23.388;2023-07-24T11:45:55;95432.44;;;37.58;33.52
19590;BME280;12231;42.782;23.388;2023-07-24T11:48:23;95428.03;;;36.06;35.01
19590;BME280;12231;42.782;23.388;2023-07-24T11:50:53;95427.91;;;36.49;34.90
19590;BME280;12231;42.782;23.388;2023-07-24T11:53:20;95423.53;;;37.06;34.52
19590;BME280;12231;42.782;23.388;2023-07-24T11:55:47;95417.03;;;37.02;34.73
19590;BME280;12231;42.782;23.388;2023-07-24T11:58:14;95413.13;;;36.20;35.90
19590;BME280;12231;42.782;23.388;2023-07-24T12:00:41;95417.75;;;35.76;36.56
19590;BME280;12231;42.782;23.388;2023-07-24T12:03:06;95407.38;;;35.63;36.95
19590;BME280;12231;42.782;23.388;2023-07-24T12:05:43;95408.53;;;36.47;36.36
19590;BME280;12231;42.782;23.388;2023-07-24T12:08:12;95398.97;;;36.29;33.57
19590;BME280;12231;42.782;23.388;2023-07-24T12:10:40;95400.25;;;36.85;34.49
19590;BME280;12231;42.782;23.388;2023-07-24T12:13:06;95409.28;;;37.10;35.13
19590;BME280;12231;42.782;23.388;2023-07-24T12:15:32;95403.81;;;36.95;33.22
19590;BME280;12231;42.782;23.388;2023-07-24T12:17:59;95400.13;;;37.11;33.96
19590;BME280;12231;42.782;23.388;2023-07-24T12:20:26;95402.59;;;36.76;34.71
19590;BME280;12231;42.782;23.388;2023-07-24T12:22:52;95398.47;;;36.32;33.53
19590;BME280;12231;42.782;23.388;2023-07-24T12:25:17;95401.22;;;36.74;33.94
19590;BME280;12231;42.782;23.388;2023-07-24T12:27:42;95402.13;;;36.84;33.17
19590;BME280;12231;42.782;23.388;2023-07-24T12:30:08;95395.59;;;37.17;32.66
19590;BME280;12231;42.782;23.388;2023-07-24T12:32:34;95392.28;;;37.47;32.71
19590;BME280;12231;42.782;23.388;2023-07-24T12:34:59;95393.00;;;36.90;34.22
19590;BME280;12231;42.782;23.388;2023-07-24T12:37:25;95391.91;;;37.28;33.70
19590;BME280;12231;42.782;23.388;2023-07-24T12:39:51;95384.50;;;37.55;33.77
19590;BME280;12231;42.782;23.388;2023-07-24T12:42:16;95380.84;;;37.25;33.40
19590;BME280;12231;42.782;23.388;2023-07-24T12:44:43;95375.31;;;36.94;34.02
19590;BME280;12231;42.782;23.388;2023-07-24T12:47:10;95373.69;;;36.98;33.11
19590;BME280;12231;42.782;23.388;2023-07-24T12:49:35;95383.75;;;37.18;33.44
19590;BME280;12231;42.782;23.388;2023-07-24T12:52:02;95375.44;;;37.20;33.54
19590;BME280;12231;42.782;23.388;2023-07-24T12:54:27;95374.91;;;37.17;32.85
19590;BME280;12231;42.782;23.388;2023-07-24T12:56:53;95369.84;;;37.31;33.58
19590;BME280;12231;42.782;23.388;2023-07-24T12:59:18;95370.19;;;36.56;34.30